createdAt,value
2023-03-20T00:01:49.311Z,16.02
2023-03-20T00:04:53.480Z,16.77
2023-03-20T00:08:00.194Z,14.75
2023-03-20T00:11:04.161Z,14.68
2023-03-20T00:14:14.725Z,15.35
2023-03-20T00:17:21.815Z,14.80
2023-03-20T00:20:28.464Z,14.40
2023-03-20T00:23:32.805Z,14.18
2023-03-20T00:26:39.587Z,14.52
2023-03-20T00:29:47.076Z,13.98
2023-03-20T00:32:53.943Z,13.38
2023-03-20T00:35:58.393Z,13.73
2023-03-20T00:39:04.701Z,14.55
2023-03-20T00:42:10.135Z,13.43
2023-03-20T00:45:20.980Z,13.80
2023-03-20T00:48:25.099Z,14.52
2023-03-20T00:51:31.300Z,14.15
2023-03-20T00:54:35.812Z,14.13
2023-03-20T00:57:47.289Z,15.00
2023-03-20T01:00:53.941Z,13.80
2023-03-20T01:04:00.287Z,14.25
2023-03-20T01:07:06.873Z,14.18
2023-03-20T01:10:13.235Z,14.15
2023-03-20T01:13:23.012Z,14.52
2023-03-20T01:16:31.152Z,15.00
2023-03-20T01:19:35.964Z,15.40
2023-03-20T01:22:41.876Z,12.85
2023-03-20T01:28:52.207Z,10.80
2023-03-20T01:31:58.701Z,12.02
2023-03-20T01:35:07.435Z,11.80
2023-03-20T01:38:17.338Z,13.13
2023-03-20T01:41:25.854Z,12.38
2023-03-20T01:44:32.803Z,12.80
2023-03-20T01:47:42.186Z,12.93
2023-03-20T01:50:48.017Z,13.82
2023-03-20T01:53:59.306Z,13.20
2023-03-20T01:57:09.383Z,14.18
2023-03-20T02:00:18.481Z,13.48
2023-03-20T02:03:26.822Z,12.45
2023-03-20T02:06:53.172Z,13.50
2023-03-20T02:10:20.043Z,13.38
2023-03-20T02:13:37.039Z,14.52
2023-03-20T02:16:41.685Z,13.57
2023-03-20T02:20:23.380Z,12.48
2023-03-20T02:23:59.184Z,11.15
2023-03-20T02:27:19.735Z,11.75
2023-03-20T02:30:50.200Z,12.48
2023-03-20T02:34:16.792Z,9.52
2023-03-20T02:37:55.264Z,10.70
2023-03-20T02:41:09.022Z,11.90
2023-03-20T02:44:20.129Z,9.90
2023-03-20T02:47:33.408Z,10.27
2023-03-20T02:50:51.765Z,9.98
2023-03-20T02:54:08.424Z,9.50
2023-03-20T02:57:21.212Z,9.70
2023-03-20T03:00:32.912Z,8.73
2023-03-20T03:03:41.111Z,8.15
2023-03-20T03:06:52.019Z,8.55
2023-03-20T03:10:01.769Z,8.93
2023-03-20T03:13:12.803Z,7.32
2023-03-20T03:16:22.069Z,8.57
2023-03-20T03:19:30.945Z,8.07
2023-03-20T03:22:35.917Z,8.48
2023-03-20T03:25:45.047Z,8.23
2023-03-20T03:28:53.153Z,8.88
2023-03-20T03:31:59.901Z,8.25
2023-03-20T03:35:07.010Z,9.25
2023-03-20T03:38:30.466Z,8.25
2023-03-20T03:41:45.276Z,8.40
2023-03-20T03:45:00.160Z,9.33
2023-03-20T03:48:09.419Z,9.77
2023-03-20T03:51:19.524Z,9.90
2023-03-20T03:54:41.929Z,10.25
2023-03-20T03:58:13.141Z,11.93
2023-03-20T04:01:19.544Z,10.95
2023-03-20T04:04:27.381Z,12.18
2023-03-20T04:07:31.509Z,12.32
2023-03-20T04:10:37.456Z,12.15
2023-03-20T04:16:49.632Z,12.52
2023-03-20T04:19:53.648Z,11.25
2023-03-20T04:23:00.998Z,11.18
2023-03-20T04:26:05.434Z,10.38
2023-03-20T04:29:15.978Z,11.73
2023-03-20T04:32:45.845Z,11.48
2023-03-20T04:36:06.576Z,11.05
2023-03-20T04:39:10.674Z,10.40
2023-03-20T04:42:16.833Z,10.07
2023-03-20T04:45:22.904Z,10.30
2023-03-20T04:48:29.745Z,10.23
2023-03-20T04:51:34.207Z,10.98
2023-03-20T04:54:40.394Z,10.25
2023-03-20T04:57:44.330Z,10.77
2023-03-20T05:00:53.548Z,10.35
2023-03-20T05:04:00.535Z,9.85
2023-03-20T05:07:10.191Z,10.52
2023-03-20T05:10:26.849Z,9.25
2023-03-20T05:13:38.850Z,9.02
2023-03-20T05:17:03.176Z,9.23
2023-03-20T05:20:21.138Z,9.35
2023-03-20T05:23:34.216Z,8.43
2023-03-20T05:27:04.349Z,8.30
2023-03-20T05:30:40.763Z,7.88
2023-03-20T05:34:07.455Z,8.13
2023-03-20T05:37:20.149Z,7.38
2023-03-20T05:40:46.240Z,7.05
2023-03-20T05:44:12.294Z,6.20
2023-03-20T05:47:28.717Z,5.00
2023-03-20T05:50:52.901Z,5.20
2023-03-20T05:54:16.430Z,5.07
2023-03-20T05:57:35.008Z,5.07
2023-03-20T06:01:20.962Z,4.90
2023-03-20T06:04:45.929Z,4.45
2023-03-20T06:08:09.180Z,5.15
2023-03-20T06:11:13.335Z,4.53
2023-03-20T06:14:20.255Z,4.47
2023-03-20T06:17:31.995Z,4.68
2023-03-20T06:20:44.625Z,4.95
2023-03-20T06:23:51.291Z,4.53
2023-03-20T06:26:57.254Z,5.38
2023-03-20T06:30:02.422Z,4.70
2023-03-20T06:33:12.090Z,4.28
2023-03-20T06:36:30.020Z,5.65
2023-03-20T06:39:44.254Z,5.53
2023-03-20T06:42:50.602Z,5.80
2023-03-20T06:45:57.525Z,5.57
2023-03-20T06:49:07.054Z,6.40
2023-03-20T06:52:17.936Z,7.15
2023-03-20T06:55:29.238Z,6.55
2023-03-20T06:58:35.404Z,6.47
2023-03-20T07:01:39.924Z,7.10
2023-03-20T07:04:46.677Z,7.72
2023-03-20T07:07:51.308Z,6.82
2023-03-20T07:10:59.174Z,8.70
2023-03-20T07:14:03.721Z,8.02
2023-03-20T07:17:25.250Z,8.70
2023-03-20T07:20:29.190Z,8.20
2023-03-20T07:23:35.840Z,8.95
2023-03-20T07:26:42.523Z,8.07
2023-03-20T07:29:48.993Z,8.35
2023-03-20T07:32:55.484Z,8.60
2023-03-20T07:36:03.574Z,8.05
2023-03-20T07:39:07.716Z,8.57
2023-03-20T07:42:18.327Z,8.63
2023-03-20T07:45:29.434Z,8.73
2023-03-20T07:48:36.196Z,8.35
2023-03-20T07:51:40.572Z,7.97
2023-03-20T07:54:46.538Z,8.00
2023-03-20T07:57:53.422Z,8.95
2023-03-20T08:01:00.244Z,7.63
2023-03-20T08:04:04.329Z,7.38
2023-03-20T08:07:10.498Z,7.65
2023-03-20T08:10:15.069Z,7.47
2023-03-20T08:13:23.181Z,7.40
2023-03-20T08:16:27.537Z,6.97
2023-03-20T08:19:33.742Z,6.63
2023-03-20T08:25:43.811Z,7.22
2023-03-20T08:28:51.417Z,7.35
2023-03-20T08:31:57.892Z,6.78
2023-03-20T08:38:38.537Z,7.03
2023-03-20T08:41:45.056Z,6.68
2023-03-20T08:44:52.927Z,6.53
2023-03-20T08:47:57.037Z,7.05
2023-03-20T08:51:03.039Z,6.95
2023-03-20T08:54:08.158Z,6.95
2023-03-20T08:57:14.165Z,6.78
2023-03-20T09:00:23.022Z,7.70
2023-03-20T09:03:28.957Z,6.97
2023-03-20T09:09:38.641Z,7.15
2023-03-20T09:15:51.106Z,6.10
2023-03-20T09:18:55.657Z,5.70
2023-03-20T09:22:01.646Z,7.07
2023-03-20T09:28:11.979Z,5.85
2023-03-20T09:31:17.955Z,5.28
2023-03-20T09:34:24.558Z,6.35
2023-03-20T09:37:29.419Z,7.00
2023-03-20T09:40:47.775Z,6.22
2023-03-20T09:44:07.019Z,5.95
2023-03-20T09:47:22.233Z,6.03
2023-03-20T09:50:34.054Z,6.37
2023-03-20T09:53:45.753Z,6.25
2023-03-20T09:56:51.452Z,5.82
2023-03-20T10:00:00.964Z,5.68
2023-03-20T10:03:12.251Z,5.15
2023-03-20T10:06:19.281Z,5.77
2023-03-20T10:09:25.862Z,4.85
2023-03-20T10:12:50.162Z,5.97
2023-03-20T10:16:02.651Z,5.15
2023-03-20T10:19:25.583Z,5.47
2023-03-20T10:22:36.013Z,5.18
2023-03-20T10:25:45.586Z,5.50
2023-03-20T10:28:55.533Z,5.15
2023-03-20T10:32:07.502Z,5.28
2023-03-20T10:35:23.608Z,4.95
2023-03-20T10:38:38.472Z,4.90
2023-03-20T10:41:49.229Z,5.85
2023-03-20T10:45:00.094Z,5.18
2023-03-20T10:48:08.840Z,4.57
2023-03-20T10:51:21.667Z,5.10
2023-03-20T10:54:29.315Z,4.68
2023-03-20T10:57:38.714Z,4.65
2023-03-20T11:00:43.249Z,4.55
2023-03-20T11:03:49.243Z,4.88
2023-03-20T11:10:13.823Z,4.70
2023-03-20T11:13:25.895Z,4.38
2023-03-20T11:16:36.267Z,3.90
2023-03-20T11:19:42.563Z,5.25
2023-03-20T11:22:51.676Z,4.35
2023-03-20T11:26:00.273Z,3.75
2023-03-20T11:29:11.174Z,4.50
2023-03-20T11:32:26.784Z,4.03
2023-03-20T11:35:34.121Z,3.80
2023-03-20T11:38:46.065Z,3.38
2023-03-20T11:41:54.290Z,4.90
2023-03-20T11:45:04.526Z,5.30
2023-03-20T11:48:19.291Z,3.30
2023-03-20T11:51:24.034Z,3.95
2023-03-20T11:54:32.131Z,3.22
2023-03-20T11:57:38.349Z,3.75
2023-03-20T12:00:44.924Z,3.17
2023-03-20T12:03:55.071Z,3.15
2023-03-20T12:07:06.202Z,2.80
2023-03-20T12:10:18.766Z,2.67
2023-03-20T12:13:28.852Z,2.60
2023-03-20T12:16:35.388Z,2.33
2023-03-20T12:19:43.454Z,2.90
2023-03-20T12:22:54.855Z,2.80
2023-03-20T12:26:06.925Z,3.00
2023-03-20T12:29:16.359Z,3.67
2023-03-20T12:32:28.071Z,3.40
2023-03-20T12:35:33.381Z,3.42
2023-03-20T12:38:39.871Z,2.83
2023-03-20T12:42:00.181Z,2.92
2023-03-20T12:45:12.860Z,3.20
2023-03-20T12:48:38.486Z,2.63
2023-03-20T12:51:55.992Z,3.72
2023-03-20T12:55:26.440Z,2.78
2023-03-20T12:58:42.431Z,3.10
2023-03-20T13:01:52.482Z,2.80
2023-03-20T13:05:09.737Z,3.42
2023-03-20T13:08:36.517Z,3.05
2023-03-20T13:11:47.793Z,3.45
2023-03-20T13:15:03.767Z,3.25
2023-03-20T13:18:17.505Z,3.30
2023-03-20T13:21:28.947Z,2.88
2023-03-20T13:24:41.046Z,2.28
2023-03-20T13:27:51.654Z,2.38
2023-03-20T13:31:07.607Z,2.92
2023-03-20T13:34:25.342Z,2.63
2023-03-20T13:37:35.768Z,3.00
2023-03-20T13:40:42.974Z,2.58
2023-03-20T13:43:53.673Z,2.70
2023-03-20T13:47:03.730Z,2.40
2023-03-20T13:50:34.601Z,2.65
2023-03-20T13:53:49.353Z,2.50
2023-03-20T13:57:01.359Z,2.38
2023-03-20T14:00:16.625Z,2.45
2023-03-20T14:03:28.675Z,2.15
2023-03-20T14:07:00.117Z,3.00
2023-03-20T14:10:36.893Z,2.08
2023-03-20T14:16:47.231Z,2.55
2023-03-20T14:23:00.512Z,2.75
2023-03-20T14:26:09.801Z,2.85
2023-03-20T14:29:33.602Z,2.53
2023-03-20T14:32:52.267Z,3.00
2023-03-20T14:36:21.059Z,3.03
2023-03-20T14:39:36.355Z,3.78
2023-03-20T14:42:53.122Z,2.95
2023-03-20T14:46:03.119Z,3.28
2023-03-20T14:49:26.748Z,3.67
2023-03-20T14:52:55.998Z,3.40
2023-03-20T14:56:13.091Z,3.53
2023-03-20T14:59:18.188Z,3.30
2023-03-20T15:02:28.363Z,4.03
2023-03-20T15:05:35.470Z,3.65
2023-03-20T15:08:49.615Z,4.38
2023-03-20T15:11:59.006Z,3.30
2023-03-20T15:15:07.142Z,2.95
2023-03-20T15:18:15.509Z,4.38
2023-03-20T15:21:24.845Z,4.93
2023-03-20T15:24:31.699Z,4.28
2023-03-20T15:27:37.581Z,4.63
2023-03-20T15:30:42.241Z,4.60
2023-03-20T15:33:48.186Z,4.40
2023-03-20T15:40:00.444Z,3.83
2023-03-20T15:43:12.906Z,3.90
2023-03-20T15:46:19.388Z,4.35
2023-03-20T15:49:24.375Z,4.65
2023-03-20T15:52:34.082Z,5.47
2023-03-20T15:55:41.200Z,5.20
2023-03-20T15:58:48.589Z,5.10
2023-03-20T16:01:55.652Z,4.68
2023-03-20T16:05:01.659Z,5.13
2023-03-20T16:08:14.148Z,5.88
2023-03-20T16:11:22.560Z,5.15
2023-03-20T16:14:29.948Z,5.38
2023-03-20T16:17:36.263Z,5.53
2023-03-20T16:20:48.142Z,5.45
2023-03-20T16:23:56.635Z,5.63
2023-03-20T16:27:08.003Z,5.88
2023-03-20T16:30:18.112Z,6.50
2023-03-20T16:33:22.143Z,6.00
2023-03-20T16:36:31.751Z,6.30
2023-03-20T16:39:35.737Z,6.10
2023-03-20T16:42:44.369Z,6.43
2023-03-20T16:45:54.076Z,6.22
2023-03-20T16:49:10.705Z,6.18
2023-03-20T16:52:17.414Z,6.32
2023-03-20T16:55:28.882Z,6.45
2023-03-20T16:58:40.490Z,6.05
2023-03-20T17:01:48.450Z,4.70
2023-03-20T17:04:56.630Z,5.95
2023-03-20T17:08:07.327Z,5.60
2023-03-20T17:11:14.241Z,6.88
2023-03-20T17:14:22.035Z,7.00
2023-03-20T17:17:27.861Z,7.43
2023-03-20T17:20:34.187Z,6.55
2023-03-20T17:23:38.249Z,6.70
2023-03-20T17:26:47.104Z,7.20
2023-03-20T17:29:54.832Z,8.10
2023-03-20T17:33:00.985Z,6.57
2023-03-20T17:39:19.239Z,6.88
2023-03-20T17:42:30.492Z,6.28
2023-03-20T17:45:38.476Z,8.20
2023-03-20T17:48:42.704Z,7.38
2023-03-20T17:51:48.634Z,6.60
2023-03-20T17:57:58.398Z,6.90
2023-03-20T18:04:12.477Z,8.10
2023-03-20T18:07:18.087Z,7.30
2023-03-20T18:10:28.176Z,7.63
2023-03-20T18:13:32.340Z,7.45
2023-03-20T18:16:40.981Z,8.23
2023-03-20T18:19:46.050Z,8.20
2023-03-20T18:22:52.074Z,8.50
2023-03-20T18:25:56.205Z,8.35
2023-03-20T18:29:02.197Z,8.43
2023-03-20T18:35:15.469Z,8.02
2023-03-20T18:38:19.692Z,7.85
2023-03-20T18:41:25.624Z,8.02
2023-03-20T18:44:29.718Z,8.70
2023-03-20T18:47:38.014Z,8.35
2023-03-20T18:50:43.489Z,7.32
2023-03-20T18:53:50.387Z,8.50
2023-03-20T18:56:59.252Z,7.57
2023-03-20T19:00:06.575Z,8.80
2023-03-20T19:03:13.753Z,9.10
2023-03-20T19:06:22.316Z,7.93
2023-03-20T19:09:26.183Z,8.25
2023-03-20T19:12:32.352Z,7.75
2023-03-20T19:15:38.185Z,7.55
2023-03-20T19:18:46.422Z,7.25
2023-03-20T19:21:50.318Z,8.15
2023-03-20T19:24:56.218Z,7.78
2023-03-20T19:31:07.349Z,7.35
2023-03-20T19:34:44.526Z,6.57
2023-03-20T19:37:39.754Z,7.90
2023-03-20T19:43:55.364Z,7.32
2023-03-20T19:46:59.704Z,8.57
2023-03-20T19:50:08.501Z,7.55
2023-03-20T19:53:13.673Z,9.75
2023-03-20T19:56:23.312Z,7.30
2023-03-20T19:59:29.129Z,7.80
2023-03-20T20:02:35.160Z,7.88
2023-03-20T20:05:41.357Z,8.10
2023-03-20T20:08:49.245Z,8.15
2023-03-20T20:11:53.569Z,8.57
2023-03-20T20:14:59.485Z,9.93
2023-03-20T20:22:02.490Z,12.15
2023-03-20T20:24:36.148Z,8.80
2023-03-20T20:27:42.942Z,7.93
2023-03-20T20:30:48.542Z,8.80
2023-03-20T20:34:22.557Z,8.65
2023-03-20T20:38:03.176Z,9.57
2023-03-20T20:40:47.077Z,9.93
2023-03-20T20:47:17.312Z,9.10
2023-03-20T20:50:23.259Z,10.25
2023-03-20T20:53:31.333Z,8.88
2023-03-20T20:56:35.237Z,9.88
2023-03-20T20:59:42.557Z,10.68
2023-03-20T21:02:46.766Z,10.13
2023-03-20T21:05:52.696Z,9.80
2023-03-20T21:12:05.094Z,9.50
2023-03-20T21:15:09.832Z,9.68
2023-03-20T21:18:16.261Z,9.50
2023-03-20T21:21:20.576Z,9.32
2023-03-20T21:24:33.622Z,10.48
2023-03-20T21:27:38.714Z,9.82
2023-03-20T21:31:12.158Z,8.60
2023-03-20T21:38:25.807Z,9.30
2023-03-20T21:40:43.297Z,8.60
2023-03-20T21:43:49.304Z,9.45
2023-03-20T21:50:52.513Z,8.90
2023-03-20T22:01:29.159Z,10.00
2023-03-20T22:05:02.179Z,10.10
2023-03-20T22:07:58.111Z,10.18
2023-03-20T22:38:59.822Z,11.02
2023-03-20T22:42:28.526Z,12.77
2023-03-20T22:45:11.164Z,12.35
2023-03-20T22:48:17.273Z,12.05
2023-03-20T22:51:32.542Z,13.35
2023-03-20T22:54:40.269Z,12.95
2023-03-20T22:57:59.864Z,15.07
2023-03-20T23:01:11.205Z,14.10
2023-03-20T23:04:37.628Z,14.18
2023-03-20T23:07:41.550Z,15.55
2023-03-20T23:10:49.879Z,15.43
2023-03-20T23:13:56.461Z,14.43
2023-03-20T23:17:00.554Z,15.98
2023-03-20T23:20:12.911Z,15.75
2023-03-20T23:23:19.037Z,17.27
2023-03-20T23:26:25.183Z,14.60
2023-03-20T23:29:29.069Z,16.23
2023-03-20T23:32:37.976Z,15.15
2023-03-20T23:35:44.098Z,15.90
2023-03-20T23:38:50.384Z,15.38
2023-03-20T23:45:21.412Z,15.80
2023-03-20T23:48:26.223Z,16.77
2023-03-20T23:51:34.365Z,15.90
2023-03-20T23:54:38.280Z,16.20
2023-03-20T23:57:44.139Z,15.82
